Time;durP1;ratioP1;P1;durP2;ratioP2;P2;SDS_P1;SDS_P2;PMS_P1;PMS_P2;Temp;Humidity;BMP_temperature;BMP_pressure;BME280_temperature;BME280_humidity;BME280_pressure;Samples;Min_cycle;Max_cycle;Signal;HPM_P1;HPM_P2
2023/01/15 00:00:11;;;;;;;2.45;0.43;;;12.70;56.50;;;;;;4950274;28;20058;-50
2023/01/15 00:02:38;;;;;;;1.17;0.28;;;12.50;56.50;;;;;;4951904;28;20051;-49
2023/01/15 00:05:06;;;;;;;0.82;0.30;;;12.40;56.50;;;;;;4959796;28;20051;-43
2023/01/15 00:07:33;;;;;;;3.30;0.45;;;12.30;56.90;;;;;;4944009;28;20055;-47
2023/01/15 00:10:00;;;;;;;1.95;0.40;;;12.20;57.10;;;;;;4946597;28;20061;-48
2023/01/15 00:12:28;;;;;;;0.95;0.32;;;12.10;57.40;;;;;;4953112;28;20059;-46
2023/01/15 00:14:56;;;;;;;0.68;0.30;;;12.00;57.20;;;;;;4951783;28;20061;-47
2023/01/15 00:17:25;;;;;;;1.70;0.30;;;11.90;57.30;;;;;;4948693;28;20047;-46
2023/01/15 00:19:52;;;;;;;0.77;0.30;;;11.80;57.50;;;;;;4951294;28;20061;-44
2023/01/15 00:22:20;;;;;;;2.17;0.30;;;11.70;57.50;;;;;;4952081;28;20059;-47
2023/01/15 00:27:42;;;;;;;2.25;0.40;;;11.60;57.60;;;;;;4951687;28;20070;-44
2023/01/15 00:30:12;;;;;;;1.42;0.30;;;11.60;57.80;;;;;;4952805;28;20066;-48
2023/01/15 00:32:42;;;;;;;1.85;0.40;;;11.50;57.70;;;;;;4951708;28;20051;-45
2023/01/15 00:35:13;;;;;;;0.57;0.25;;;11.40;57.90;;;;;;4954760;28;20055;-47
2023/01/15 00:37:40;;;;;;;0.68;0.35;;;11.40;57.90;;;;;;4954052;28;20055;-46
2023/01/15 00:40:08;;;;;;;1.27;0.50;;;11.40;58.00;;;;;;4945959;28;20061;-46
2023/01/15 00:42:36;;;;;;;2.90;0.40;;;11.30;58.10;;;;;;4950255;28;20059;-48
2023/01/15 00:45:08;;;;;;;0.88;0.30;;;11.30;58.10;;;;;;4951440;28;20058;-43
2023/01/15 00:47:36;;;;;;;1.60;0.40;;;11.30;58.00;;;;;;4946250;28;20055;-49
2023/01/15 00:50:06;;;;;;;0.63;0.32;;;11.30;58.10;;;;;;4950555;28;20085;-49
2023/01/15 00:52:33;;;;;;;3.40;0.43;;;11.20;58.00;;;;;;4955257;28;20058;-46
2023/01/15 00:55:00;;;;;;;1.55;0.35;;;11.20;57.80;;;;;;4946996;28;20055;-47
2023/01/15 00:57:27;;;;;;;1.33;0.28;;;11.10;57.80;;;;;;4952111;28;20055;-48
2023/01/15 00:59:55;;;;;;;1.05;0.38;;;11.10;57.80;;;;;;4953136;28;21426;-47
2023/01/15 01:02:22;;;;;;;3.35;0.52;;;11.10;57.80;;;;;;4956228;28;20062;-48
2023/01/15 01:04:49;;;;;;;2.67;0.50;;;11.00;57.70;;;;;;4954151;28;20062;-49
2023/01/15 01:07:18;;;;;;;1.85;0.30;;;11.00;57.80;;;;;;4947616;28;20058;-45
2023/01/15 01:09:46;;;;;;;0.98;0.40;;;11.00;57.80;;;;;;4953038;28;20403;-47
2023/01/15 01:12:13;;;;;;;3.17;0.55;;;10.90;57.70;;;;;;4953398;28;20061;-44
2023/01/15 01:14:40;;;;;;;1.73;0.30;;;10.90;57.80;;;;;;4953883;28;20062;-45
2023/01/15 01:17:07;;;;;;;3.00;0.73;;;10.90;57.70;;;;;;4938860;28;20059;-48
2023/01/15 01:19:36;;;;;;;2.90;0.30;;;10.80;57.60;;;;;;4949332;28;20055;-47
2023/01/15 01:22:03;;;;;;;1.50;0.50;;;10.80;57.70;;;;;;4955552;28;20499;-47
2023/01/15 01:24:32;;;;;;;1.67;0.43;;;10.80;57.70;;;;;;4945324;28;20068;-49
2023/01/15 01:26:59;;;;;;;1.42;0.40;;;10.80;57.60;;;;;;4943268;28;20522;-45
2023/01/15 01:29:26;;;;;;;2.53;0.50;;;10.70;57.70;;;;;;4948494;28;20062;-45
2023/01/15 01:31:53;;;;;;;0.90;0.30;;;10.70;57.70;;;;;;4954935;28;20495;-47
2023/01/15 01:34:21;;;;;;;1.60;0.47;;;10.70;57.70;;;;;;4956488;28;20434;-48
2023/01/15 01:36:48;;;;;;;3.33;0.60;;;10.70;57.70;;;;;;4952042;28;20065;-47
2023/01/15 01:39:17;;;;;;;0.68;0.30;;;10.70;57.60;;;;;;4961469;28;20055;-48
2023/01/15 01:41:47;;;;;;;2.28;0.35;;;10.70;57.40;;;;;;4951059;28;20051;-48
2023/01/15 01:44:58;;;;;;;1.30;0.20;;;10.70;57.50;;;;;;4953925;28;20587;-47
2023/01/15 01:47:27;;;;;;;1.25;0.40;;;10.70;57.30;;;;;;4974541;28;20051;-45
2023/01/15 01:49:59;;;;;;;1.60;0.30;;;10.70;57.20;;;;;;4952942;28;20066;-46
2023/01/15 01:52:30;;;;;;;1.40;0.30;;;10.70;57.10;;;;;;4958372;28;20057;-49
2023/01/15 01:54:57;;;;;;;2.38;0.20;;;10.70;57.10;;;;;;4954346;28;20055;-47
2023/01/15 01:57:26;;;;;;;0.82;0.30;;;10.70;57.20;;;;;;4956463;28;20057;-47
2023/01/15 01:59:53;;;;;;;1.77;0.25;;;10.60;57.00;;;;;;4950384;28;20728;-49
2023/01/15 02:02:22;;;;;;;0.73;0.20;;;10.60;57.10;;;;;;4954858;28;20380;-46
2023/01/15 02:04:49;;;;;;;1.05;0.25;;;10.60;57.30;;;;;;4948760;28;20059;-48
2023/01/15 02:07:17;;;;;;;3.33;0.40;;;10.60;57.30;;;;;;4949269;28;20058;-47
2023/01/15 02:09:44;;;;;;;1.45;0.20;;;10.60;57.50;;;;;;4948872;28;20063;-48
2023/01/15 02:12:16;;;;;;;1.02;0.30;;;10.60;57.50;;;;;;4949317;28;20066;-49
2023/01/15 02:14:54;;;;;;;1.23;0.47;;;10.60;57.40;;;;;;4958316;28;20521;-44
2023/01/15 02:17:31;;;;;;;1.52;0.30;;;10.60;57.20;;;;;;4948959;28;20423;-48
2023/01/15 02:20:16;;;;;;;2.50;0.30;;;10.60;57.00;;;;;;4950951;28;20059;-47
2023/01/15 02:22:54;;;;;;;2.92;1.15;;;10.60;56.90;;;;;;4953466;28;20086;-50
2023/01/15 02:25:30;;;;;;;1.05;0.20;;;10.60;56.80;;;;;;4953586;28;20471;-49
2023/01/15 02:28:04;;;;;;;2.78;1.20;;;10.60;56.70;;;;;;4953696;28;20059;-43
2023/01/15 02:30:35;;;;;;;1.70;0.45;;;10.60;56.60;;;;;;4962013;28;20058;-47
2023/01/15 02:33:06;;;;;;;3.15;0.30;;;10.50;56.70;;;;;;4964240;28;20062;-48
2023/01/15 02:35:38;;;;;;;2.05;0.55;;;10.50;56.60;;;;;;4960936;28;20050;-47
2023/01/15 02:38:08;;;;;;;1.58;0.35;;;10.50;56.70;;;;;;4959149;28;20062;-47
2023/01/15 02:40:37;;;;;;;1.25;0.45;;;10.50;56.80;;;;;;4960195;28;20070;-46
2023/01/15 02:43:07;;;;;;;2.53;0.47;;;10.50;56.90;;;;;;4961617;28;20051;-48
2023/01/15 02:45:39;;;;;;;1.85;0.35;;;10.50;57.10;;;;;;4962415;28;20065;-44
2023/01/15 02:48:10;;;;;;;1.80;0.15;;;10.50;56.90;;;;;;4961540;28;20055;-48
2023/01/15 02:50:42;;;;;;;0.85;0.15;;;10.50;56.90;;;;;;4961182;28;20079;-44
2023/01/15 02:53:14;;;;;;;1.20;0.20;;;10.50;56.50;;;;;;4962138;28;20062;-46
2023/01/15 02:55:44;;;;;;;1.42;0.40;;;10.50;56.50;;;;;;4960712;28;20062;-45
2023/01/15 02:58:18;;;;;;;1.73;0.38;;;10.50;56.40;;;;;;4962730;28;20061;-48
2023/01/15 03:00:49;;;;;;;2.17;0.50;;;10.50;56.20;;;;;;4960044;28;20055;-47
2023/01/15 03:03:35;;;;;;;5.13;0.90;;;10.50;56.10;;;;;;4961273;28;20787;-47
2023/01/15 03:06:08;;;;;;;1.52;0.30;;;10.50;56.10;;;;;;4962051;28;20378;-44
2023/01/15 03:08:36;;;;;;;3.15;0.90;;;10.50;56.20;;;;;;4960888;28;20058;-46
2023/01/15 03:11:08;;;;;;;1.75;0.63;;;10.50;56.00;;;;;;4962791;28;20051;-48
2023/01/15 03:13:45;;;;;;;3.00;0.30;;;10.40;55.80;;;;;;4961293;28;20047;-48
2023/01/15 03:16:35;;;;;;;1.15;0.20;;;10.40;55.80;;;;;;4962427;28;20422;-46
2023/01/15 03:19:11;;;;;;;1.02;0.20;;;10.40;55.80;;;;;;4953501;28;20562;-44
2023/01/15 03:21:46;;;;;;;2.50;0.17;;;10.40;55.80;;;;;;4961260;28;20051;-47
2023/01/15 03:24:18;;;;;;;0.85;0.13;;;10.40;55.90;;;;;;4957930;28;20055;-51
2023/01/15 03:26:45;;;;;;;0.43;0.20;;;10.40;56.00;;;;;;4961511;28;20062;-46
2023/01/15 03:29:14;;;;;;;1.25;0.30;;;10.40;56.20;;;;;;4953171;28;20062;-46
2023/01/15 03:31:43;;;;;;;2.58;0.22;;;10.40;56.40;;;;;;4940914;28;20047;-47
2023/01/15 03:34:11;;;;;;;0.20;0.20;;;10.40;56.50;;;;;;4942621;28;20063;-48
2023/01/15 03:36:38;;;;;;;2.10;0.30;;;10.50;56.20;;;;;;4947186;28;20047;-48
2023/01/15 03:39:06;;;;;;;2.10;0.30;;;10.40;56.20;;;;;;4949287;28;20050;-44
2023/01/15 03:41:47;;;;;;;1.90;0.65;;;10.40;56.20;;;;;;4951669;28;20054;-45
2023/01/15 03:44:25;;;;;;;3.22;0.40;;;10.40;55.70;;;;;;4958454;28;20059;-49
2023/01/15 03:47:04;;;;;;;2.90;0.20;;;10.40;55.80;;;;;;4946758;28;20067;-48
2023/01/15 03:49:40;;;;;;;1.95;0.30;;;10.50;55.60;;;;;;4948659;28;20427;-43
2023/01/15 03:52:14;;;;;;;1.23;0.30;;;10.40;55.50;;;;;;4943738;28;20055;-47
2023/01/15 03:54:50;;;;;;;2.40;0.30;;;10.40;55.50;;;;;;4943784;28;20051;-48
2023/01/15 03:57:26;;;;;;;1.23;0.30;;;10.40;55.60;;;;;;4944352;28;20062;-47
2023/01/15 03:59:59;;;;;;;1.48;0.30;;;10.40;55.60;;;;;;4931296;28;20074;-48
2023/01/15 04:02:29;;;;;;;4.07;0.70;;;10.50;55.80;;;;;;4947572;28;20407;-50
2023/01/15 04:04:58;;;;;;;2.85;0.40;;;10.40;55.70;;;;;;4948078;28;20047;-44
2023/01/15 04:07:26;;;;;;;2.90;0.60;;;10.50;55.60;;;;;;4947245;28;20493;-48
2023/01/15 04:09:53;;;;;;;1.83;0.35;;;10.40;55.40;;;;;;4930022;28;20055;-46
2023/01/15 04:12:21;;;;;;;1.52;0.40;;;10.40;55.20;;;;;;4943757;28;20055;-47
2023/01/15 04:14:48;;;;;;;5.53;0.30;;;10.40;55.20;;;;;;4936767;28;20070;-47
2023/01/15 04:17:16;;;;;;;3.13;0.30;;;10.40;55.20;;;;;;4943677;28;20518;-46
2023/01/15 04:19:43;;;;;;;3.05;0.30;;;10.40;55.20;;;;;;4943112;28;20067;-48
2023/01/15 04:22:11;;;;;;;2.47;0.47;;;10.40;55.20;;;;;;4941797;28;20499;-48
2023/01/15 04:24:39;;;;;;;3.67;0.55;;;10.40;55.00;;;;;;4941766;28;20051;-45
2023/01/15 04:27:06;;;;;;;3.42;0.43;;;10.40;54.80;;;;;;4942789;28;20044;-44
2023/01/15 04:29:33;;;;;;;2.17;0.30;;;10.40;54.60;;;;;;4949281;28;20062;-48
2023/01/15 04:32:00;;;;;;;3.58;0.55;;;10.40;54.50;;;;;;4943435;28;20059;-48
2023/01/15 04:34:29;;;;;;;3.88;0.40;;;10.40;54.50;;;;;;4946497;28;20056;-46
2023/01/15 04:36:57;;;;;;;1.00;0.30;;;10.50;54.40;;;;;;4949222;28;20057;-44
2023/01/15 04:39:24;;;;;;;2.08;0.40;;;10.50;54.50;;;;;;4946418;28;20510;-46
2023/01/15 04:44:37;;;;;;;2.80;0.38;;;10.40;54.50;;;;;;4957413;28;20502;-46
2023/01/15 04:47:05;;;;;;;3.15;0.50;;;10.40;54.50;;;;;;4952872;28;20050;-47
2023/01/15 04:49:34;;;;;;;4.07;0.50;;;10.40;54.40;;;;;;4945523;28;20055;-44
2023/01/15 04:52:02;;;;;;;2.75;0.40;;;10.40;54.50;;;;;;4949101;28;20066;-46
2023/01/15 04:54:29;;;;;;;2.25;0.30;;;10.40;54.50;;;;;;4943848;28;20051;-48
2023/01/15 04:56:56;;;;;;;1.80;0.40;;;10.30;54.40;;;;;;4932510;28;20043;-47
2023/01/15 04:59:25;;;;;;;2.83;0.77;;;10.30;54.40;;;;;;4923809;28;20059;-49
2023/01/15 05:01:53;;;;;;;3.08;0.30;;;10.30;54.40;;;;;;4936681;28;20430;-47
2023/01/15 05:04:20;;;;;;;1.77;0.40;;;10.30;54.50;;;;;;4923140;28;20060;-46
2023/01/15 05:06:49;;;;;;;5.15;0.55;;;10.20;54.50;;;;;;4928363;28;20048;-49
2023/01/15 05:09:16;;;;;;;2.50;0.60;;;10.20;54.50;;;;;;4921995;28;20400;-48
2023/01/15 05:11:43;;;;;;;2.35;0.30;;;10.20;54.40;;;;;;4928817;28;20055;-47
2023/01/15 05:14:10;;;;;;;1.85;0.47;;;10.20;54.70;;;;;;4923083;28;20448;-48
2023/01/15 05:16:38;;;;;;;2.22;0.60;;;10.20;54.80;;;;;;4926381;28;20055;-48
2023/01/15 05:19:07;;;;;;;5.25;0.57;;;10.20;54.60;;;;;;4921771;28;20185;-46
2023/01/15 05:21:36;;;;;;;4.18;0.60;;;10.20;54.70;;;;;;4922936;28;20055;-45
2023/01/15 05:24:07;;;;;;;2.00;0.40;;;10.10;54.70;;;;;;4923913;28;20047;-46
2023/01/15 05:26:35;;;;;;;4.65;0.60;;;10.10;54.70;;;;;;4923552;28;20059;-44
2023/01/15 05:29:03;;;;;;;5.13;1.02;;;10.10;54.70;;;;;;4934856;28;20055;-46
2023/01/15 05:31:32;;;;;;;1.67;0.38;;;10.10;54.70;;;;;;4941232;28;20052;-48
2023/01/15 05:34:00;;;;;;;2.13;0.68;;;10.10;54.70;;;;;;4941027;28;20438;-44
2023/01/15 05:36:28;;;;;;;3.33;0.65;;;10.10;55.10;;;;;;4940759;28;20499;-52
2023/01/15 05:39:00;;;;;;;6.38;0.50;;;10.10;54.90;;;;;;4939750;28;21016;-45
2023/01/15 05:44:16;;;;;;;2.60;0.40;;;10.10;55.00;;;;;;4950418;28;20081;-48
2023/01/15 05:46:44;;;;;;;6.05;0.50;;;10.10;55.10;;;;;;4946037;28;20054;-47
2023/01/15 05:49:14;;;;;;;4.00;0.50;;;10.10;55.20;;;;;;4939374;28;20063;-48
2023/01/15 05:51:42;;;;;;;2.47;0.32;;;10.10;54.80;;;;;;4950023;28;20054;-52
2023/01/15 05:54:12;;;;;;;1.75;0.40;;;10.10;54.50;;;;;;4943308;28;20054;-48
2023/01/15 05:56:41;;;;;;;2.55;0.40;;;10.10;54.60;;;;;;4949216;28;20059;-48
2023/01/15 05:59:08;;;;;;;1.98;0.43;;;10.10;55.20;;;;;;4946940;28;20621;-55
2023/01/15 06:01:36;;;;;;;3.00;0.60;;;10.10;54.70;;;;;;4938697;28;20055;-47
2023/01/15 06:04:05;;;;;;;4.97;0.70;;;10.10;54.50;;;;;;4943729;28;20055;-48
2023/01/15 06:06:34;;;;;;;11.27;1.38;;;10.10;54.50;;;;;;4941886;28;20511;-47
2023/01/15 06:09:01;;;;;;;3.65;0.68;;;10.10;54.40;;;;;;4941870;28;20059;-48
2023/01/15 06:11:28;;;;;;;4.20;0.60;;;10.10;54.80;;;;;;4940298;28;20058;-49
2023/01/15 06:13:57;;;;;;;3.13;0.57;;;10.10;54.80;;;;;;4944420;28;20054;-47
2023/01/15 06:16:25;;;;;;;4.75;0.50;;;10.10;54.70;;;;;;4943748;28;20066;-50
2023/01/15 06:18:52;;;;;;;4.10;0.47;;;10.10;54.80;;;;;;4946163;28;20733;-46
2023/01/15 06:21:19;;;;;;;3.30;0.95;;;10.10;54.60;;;;;;4947640;28;20061;-47
2023/01/15 06:23:46;;;;;;;3.60;0.63;;;10.10;54.40;;;;;;4944038;28;20059;-45
2023/01/15 06:26:16;;;;;;;3.13;0.50;;;10.10;54.60;;;;;;4944352;28;20055;-46
2023/01/15 06:28:44;;;;;;;5.85;0.50;;;10.10;54.60;;;;;;4934463;28;20055;-46
2023/01/15 06:31:15;;;;;;;2.60;0.32;;;10.10;54.70;;;;;;4928596;28;20415;-51
2023/01/15 06:33:42;;;;;;;2.53;0.50;;;10.10;54.90;;;;;;4928573;28;20060;-46
2023/01/15 06:36:11;;;;;;;1.50;0.30;;;10.10;55.00;;;;;;4929770;28;20071;-44
2023/01/15 06:38:39;;;;;;;0.95;0.10;;;10.20;55.10;;;;;;4935428;28;20515;-47
2023/01/15 06:49:33;;;;;;;0.80;0.20;;;10.10;55.10;;;;;;4941177;28;20063;-49
2023/01/15 06:52:01;;;;;;;0.75;0.20;;;10.10;55.30;;;;;;4929243;28;20055;-48
2023/01/15 06:54:28;;;;;;;0.70;0.20;;;10.00;55.10;;;;;;4929767;28;20539;-49
2023/01/15 06:56:55;;;;;;;4.40;0.30;;;10.00;54.90;;;;;;4926219;28;20453;-45
2023/01/15 06:59:23;;;;;;;0.85;0.10;;;10.00;54.80;;;;;;4925330;28;20059;-46
2023/01/15 07:01:51;;;;;;;2.83;0.10;;;10.00;54.70;;;;;;4927533;28;20059;-48
2023/01/15 07:04:18;;;;;;;0.68;0.10;;;9.90;54.70;;;;;;4926934;28;20526;-46
2023/01/15 07:06:48;;;;;;;0.75;0.10;;;9.90;54.80;;;;;;4931094;28;20056;-47
2023/01/15 07:09:15;;;;;;;0.10;0.10;;;9.90;54.80;;;;;;4929535;28;20060;-46
2023/01/15 07:11:49;;;;;;;0.10;0.10;;;9.90;55.00;;;;;;4930760;28;20067;-45
2023/01/15 07:14:17;;;;;;;0.10;0.03;;;9.80;55.00;;;;;;4930926;28;20518;-44
2023/01/15 07:16:45;;;;;;;1.48;0.63;;;9.80;55.10;;;;;;4935809;28;21032;-45
2023/01/15 07:19:14;;;;;;;0.38;0.32;;;9.70;55.10;;;;;;4925412;28;20055;-45
2023/01/15 07:21:41;;;;;;;0.95;0.30;;;9.70;55.10;;;;;;4933502;28;20396;-48
2023/01/15 07:24:09;;;;;;;0.90;0.30;;;9.70;55.30;;;;;;4924814;28;20518;-45
2023/01/15 07:26:37;;;;;;;1.40;0.60;;;9.70;55.40;;;;;;4931200;28;20515;-46
2023/01/15 07:29:04;;;;;;;0.38;0.20;;;9.70;55.40;;;;;;4932805;28;20688;-44
2023/01/15 07:31:31;;;;;;;0.35;0.10;;;9.60;55.40;;;;;;4935877;28;20054;-44
2023/01/15 07:33:58;;;;;;;1.88;0.10;;;9.60;55.30;;;;;;4949265;28;20130;-46
2023/01/15 07:36:27;;;;;;;0.70;0.10;;;9.60;55.40;;;;;;4942830;28;20063;-44
2023/01/15 07:38:54;;;;;;;1.02;0.15;;;9.50;55.40;;;;;;4973566;28;20407;-44
2023/01/15 07:49:47;;;;;;;;;;;9.50;55.70;;;;;;4948795;28;20062;-42
2023/01/15 07:52:17;;;;;;;5.05;3.20;;;9.50;55.70;;;;;;4940586;28;19927;-43
2023/01/15 07:54:46;;;;;;;3.80;1.20;;;9.50;55.70;;;;;;4936722;28;20922;-44
2023/01/15 07:57:16;;;;;;;2.55;1.90;;;9.50;55.50;;;;;;4939738;28;20510;-46
2023/01/15 07:59:43;;;;;;;1.50;1.20;;;9.50;55.40;;;;;;4940415;28;20055;-46
2023/01/15 08:02:10;;;;;;;1.10;0.80;;;9.50;55.40;;;;;;4940312;28;21353;-48
2023/01/15 08:04:38;;;;;;;3.00;1.60;;;9.40;55.20;;;;;;4938393;28;20059;-47
2023/01/15 08:07:05;;;;;;;4.00;1.10;;;9.50;55.40;;;;;;4940454;28;20055;-51
2023/01/15 08:09:34;;;;;;;0.85;0.40;;;9.40;55.40;;;;;;4936006;28;20047;-43
2023/01/15 08:17:33;;;;;;;1.20;0.60;;;9.50;55.00;;;;;;4943794;28;20062;-47
2023/01/15 08:20:00;;;;;;;0.80;0.40;;;9.50;54.90;;;;;;4938927;28;20054;-43
2023/01/15 08:22:28;;;;;;;0.68;0.22;;;9.50;54.80;;;;;;4944677;28;20070;-44
2023/01/15 08:24:56;;;;;;;0.50;0.50;;;9.50;54.80;;;;;;4943725;28;20670;-45
2023/01/15 08:27:23;;;;;;;4.35;0.88;;;9.50;54.60;;;;;;4949587;28;20074;-44
2023/01/15 08:29:51;;;;;;;3.08;0.98;;;9.50;54.60;;;;;;4948798;28;20055;-48
2023/01/15 08:32:18;;;;;;;0.85;0.50;;;9.60;55.00;;;;;;4946404;28;20062;-45
2023/01/15 08:34:45;;;;;;;1.35;0.40;;;9.50;55.20;;;;;;4943855;28;20491;-46
2023/01/15 08:37:12;;;;;;;0.50;0.30;;;9.50;55.20;;;;;;4946736;28;20059;-43
2023/01/15 08:39:40;;;;;;;1.38;0.40;;;9.50;55.10;;;;;;4970289;28;20047;-45
2023/01/15 08:42:08;;;;;;;2.35;0.40;;;9.60;55.00;;;;;;4940193;28;20051;-43
2023/01/15 08:44:36;;;;;;;1.70;0.38;;;9.50;55.50;;;;;;4937629;28;20061;-43
2023/01/15 08:47:03;;;;;;;1.45;0.38;;;9.50;55.00;;;;;;4938901;28;20510;-44
2023/01/15 08:49:30;;;;;;;2.05;0.70;;;9.60;55.00;;;;;;4942568;28;20387;-48
2023/01/15 08:51:58;;;;;;;0.70;0.40;;;9.60;54.90;;;;;;4944655;28;20067;-44
2023/01/15 08:54:25;;;;;;;1.75;0.90;;;9.60;55.10;;;;;;4943002;28;20518;-45
2023/01/15 08:56:52;;;;;;;6.65;1.00;;;9.60;55.50;;;;;;4945201;28;20062;-48
2023/01/15 08:59:21;;;;;;;2.03;0.90;;;9.60;55.10;;;;;;4941126;28;20049;-46
2023/01/15 09:01:48;;;;;;;1.85;0.50;;;9.60;55.10;;;;;;4946356;28;20085;-47
2023/01/15 09:04:17;;;;;;;0.93;0.30;;;9.60;55.20;;;;;;4947470;28;20169;-44
2023/01/15 09:06:44;;;;;;;1.58;0.60;;;9.60;55.20;;;;;;4940064;28;20055;-49
2023/01/15 09:09:12;;;;;;;1.42;0.60;;;9.60;55.10;;;;;;4951087;28;20051;-48
2023/01/15 09:11:40;;;;;;;3.08;0.45;;;9.60;55.40;;;;;;4940195;28;20055;-46
2023/01/15 09:14:07;;;;;;;9.23;0.57;;;9.70;55.30;;;;;;4940705;28;20066;-45
2023/01/15 09:16:37;;;;;;;1.33;0.60;;;9.70;55.20;;;;;;4944448;28;20059;-46
2023/01/15 09:19:05;;;;;;;2.00;0.52;;;9.70;55.30;;;;;;4937139;28;20419;-51
2023/01/15 09:21:33;;;;;;;1.80;0.50;;;9.70;55.30;;;;;;4937276;28;20058;-53
2023/01/15 09:24:01;;;;;;;1.95;0.50;;;9.70;55.30;;;;;;4938875;28;20066;-45
2023/01/15 09:26:31;;;;;;;4.43;0.68;;;9.70;55.30;;;;;;4937201;28;20052;-45
2023/01/15 09:28:59;;;;;;;4.88;0.60;;;9.80;55.20;;;;;;4921099;28;20063;-48
2023/01/15 09:31:28;;;;;;;3.40;0.60;;;9.80;55.00;;;;;;4921157;28;20151;-50
2023/01/15 09:33:58;;;;;;;2.42;0.50;;;9.80;54.70;;;;;;4915750;28;20062;-46
2023/01/15 09:36:28;;;;;;;1.77;0.30;;;9.80;54.80;;;;;;4921147;28;20510;-57
2023/01/15 09:38:56;;;;;;;2.78;0.47;;;9.80;54.80;;;;;;4922323;28;20523;-48
2023/01/15 09:44:27;;;;;;;5.30;0.60;;;9.80;54.80;;;;;;4928644;29;20074;-51
2023/01/15 09:47:05;;;;;;;1.73;0.50;;;9.80;54.60;;;;;;4954736;28;20422;-52
2023/01/15 09:49:50;;;;;;;1.77;0.55;;;9.80;54.80;;;;;;4922280;28;20488;-49
2023/01/15 09:52:33;;;;;;;2.30;0.88;;;9.80;54.50;;;;;;4925893;29;20056;-52
2023/01/15 09:55:05;;;;;;;6.53;0.93;;;9.90;54.40;;;;;;4924417;29;20511;-50
2023/01/15 09:57:33;;;;;;;4.07;1.00;;;9.90;54.60;;;;;;4925536;28;20055;-51
2023/01/15 10:00:04;;;;;;;3.80;1.10;;;9.90;54.70;;;;;;4925742;28;20048;-48
2023/01/15 10:02:37;;;;;;;4.05;1.50;;;9.90;54.60;;;;;;4926069;29;21238;-50
2023/01/15 10:05:15;;;;;;;5.80;1.63;;;9.90;54.20;;;;;;4925824;29;20147;-49
2023/01/15 10:07:50;;;;;;;5.68;1.30;;;9.90;54.30;;;;;;4924985;28;20427;-51
2023/01/15 10:10:23;;;;;;;4.35;1.02;;;9.90;54.20;;;;;;4924251;28;20047;-50
2023/01/15 10:12:57;;;;;;;2.90;0.70;;;9.90;54.30;;;;;;4925567;28;20083;-48
2023/01/15 10:15:32;;;;;;;5.40;1.05;;;9.90;54.50;;;;;;4923921;28;20051;-51
2023/01/15 10:18:00;;;;;;;3.03;0.85;;;9.90;54.50;;;;;;4921852;28;20063;-50
2023/01/15 10:20:52;;;;;;;5.30;0.98;;;9.90;54.50;;;;;;4920762;28;20052;-49
2023/01/15 10:23:37;;;;;;;9.85;1.05;;;9.90;53.90;;;;;;4924506;28;20064;-51
2023/01/15 10:26:17;;;;;;;4.60;1.10;;;9.90;53.70;;;;;;4924825;28;20063;-53
2023/01/15 10:28:59;;;;;;;3.42;1.10;;;9.90;53.80;;;;;;4926015;28;20071;-49
2023/01/15 10:31:55;;;;;;;11.30;1.83;;;9.90;53.70;;;;;;4937113;28;20055;-48
2023/01/15 10:34:39;;;;;;;9.43;2.72;;;9.90;53.80;;;;;;4939148;28;20059;-48
2023/01/15 10:37:17;;;;;;;3.80;1.40;;;9.90;53.90;;;;;;4938117;28;20055;-48
2023/01/15 10:39:53;;;;;;;4.70;1.08;;;9.90;53.90;;;;;;4932753;28;20058;-49
2023/01/15 10:42:32;;;;;;;1.88;0.98;;;9.90;53.90;;;;;;4929020;28;20055;-47
2023/01/15 10:45:06;;;;;;;5.70;1.20;;;9.80;53.80;;;;;;4936905;28;20058;-56
2023/01/15 10:47:36;;;;;;;5.07;1.13;;;9.90;53.90;;;;;;4927654;28;20052;-49
2023/01/15 10:50:16;;;;;;;6.22;0.93;;;9.90;54.00;;;;;;4928937;28;20510;-52
2023/01/15 10:52:50;;;;;;;5.95;0.90;;;9.80;53.90;;;;;;4934721;28;20052;-47
2023/01/15 10:55:19;;;;;;;;;;;9.90;54.10;;;;;;4933522;28;20056;-50
2023/01/15 10:57:53;;;;;;;3.85;0.70;;;9.90;54.10;;;;;;4935060;28;19938;-50
2023/01/15 11:00:23;;;;;;;6.70;1.08;;;9.90;54.20;;;;;;4931740;28;20062;-52
2023/01/15 11:02:59;;;;;;;7.15;1.40;;;9.90;54.10;;;;;;4937209;28;20082;-51
2023/01/15 11:05:26;;;;;;;8.50;1.10;;;9.90;54.00;;;;;;4925799;28;20064;-50
2023/01/15 11:07:55;;;;;;;13.13;2.00;;;9.90;54.00;;;;;;4935726;28;20066;-51
2023/01/15 11:10:23;;;;;;;6.63;1.63;;;9.90;53.90;;;;;;4931012;28;20051;-49
2023/01/15 11:21:15;;;;;;;5.10;0.70;;;10.00;53.80;;;;;;4938665;28;20058;-58
2023/01/15 11:23:44;;;;;;;6.60;1.48;;;10.10;54.00;;;;;;4933991;28;20059;-57
2023/01/15 11:26:20;;;;;;;8.65;1.67;;;10.10;53.70;;;;;;4932655;28;20074;-59
2023/01/15 11:28:47;;;;;;;5.35;1.30;;;10.10;53.50;;;;;;4943120;28;20059;-58
2023/01/15 11:31:16;;;;;;;8.85;1.48;;;10.10;53.50;;;;;;4948210;28;20487;-51
2023/01/15 11:33:45;;;;;;;7.15;1.00;;;10.10;53.40;;;;;;4943535;28;20427;-56
2023/01/15 11:36:22;;;;;;;5.20;1.60;;;10.20;53.30;;;;;;4942417;28;20066;-53
2023/01/15 11:38:51;;;;;;;7.78;1.27;;;10.20;53.10;;;;;;4941911;28;20062;-61
2023/01/15 11:41:22;;;;;;;12.38;1.15;;;10.20;53.30;;;;;;4941826;28;20074;-56
2023/01/15 11:52:14;;;;;;;4.82;0.85;;;10.30;53.10;;;;;;4972499;28;20066;-50
2023/01/15 11:54:48;;;;;;;10.32;2.08;;;10.30;53.10;;;;;;4950287;28;20067;-57
2023/01/15 11:57:25;;;;;;;7.40;1.00;;;10.40;53.00;;;;;;4943019;28;20051;-53
2023/01/15 11:59:53;;;;;;;5.70;0.93;;;10.40;52.60;;;;;;4935044;28;20054;-51
2023/01/15 12:02:32;;;;;;;3.47;0.90;;;10.50;52.60;;;;;;4949671;28;20061;-52
2023/01/15 12:05:01;;;;;;;5.05;1.05;;;10.50;52.30;;;;;;4943693;28;20082;-51
2023/01/15 12:07:29;;;;;;;5.88;1.10;;;10.50;52.40;;;;;;4945211;28;20051;-51
2023/01/15 12:10:15;;;;;;;5.25;0.70;;;10.60;52.30;;;;;;4939531;28;20055;-48
2023/01/15 12:12:57;;;;;;;4.22;1.05;;;10.60;52.20;;;;;;4944666;28;20070;-59
2023/01/15 12:15:40;;;;;;;8.63;0.80;;;10.60;52.30;;;;;;4943668;28;20422;-52
2023/01/15 12:18:33;;;;;;;4.93;1.02;;;10.60;52.20;;;;;;4946846;28;20395;-54
2023/01/15 12:21:05;;;;;;;5.78;0.90;;;10.60;52.00;;;;;;4947151;28;21425;-57
2023/01/15 12:23:53;;;;;;;8.27;1.20;;;10.70;52.10;;;;;;4951810;28;20070;-48
2023/01/15 12:26:26;;;;;;;5.28;0.90;;;10.70;52.20;;;;;;4949770;28;20506;-52
2023/01/15 12:29:00;;;;;;;11.10;1.20;;;10.80;51.90;;;;;;4942297;28;20059;-48
2023/01/15 12:31:31;;;;;;;9.13;1.00;;;10.80;51.80;;;;;;4943649;28;20059;-46
2023/01/15 12:34:05;;;;;;;5.78;1.10;;;10.80;51.60;;;;;;4975047;28;20058;-45
2023/01/15 12:36:37;;;;;;;6.10;1.10;;;10.80;51.30;;;;;;4952201;28;20404;-49
2023/01/15 12:39:15;;;;;;;7.82;0.90;;;10.90;51.20;;;;;;4941264;28;20059;-58
2023/01/15 12:47:28;;;;;;;5.18;0.90;;;10.90;51.20;;;;;;4954201;28;20066;-44
2023/01/15 12:50:00;;;;;;;5.68;1.48;;;10.90;51.20;;;;;;4946235;28;20070;-48
2023/01/15 12:52:33;;;;;;;7.38;1.42;;;10.90;51.40;;;;;;4948323;28;20411;-51
2023/01/15 12:55:08;;;;;;;7.97;1.35;;;10.90;51.40;;;;;;4949845;28;20066;-51
2023/01/15 12:57:42;;;;;;;9.00;1.10;;;10.90;51.50;;;;;;4944172;28;20340;-55
2023/01/15 13:00:19;;;;;;;4.85;1.13;;;11.00;51.30;;;;;;4948136;28;20054;-46
2023/01/15 13:03:03;;;;;;;5.15;0.88;;;11.00;51.30;;;;;;4944880;28;20097;-46
2023/01/15 13:05:34;;;;;;;4.70;0.80;;;11.00;50.90;;;;;;4942015;28;20522;-50
2023/01/15 13:08:09;;;;;;;5.55;1.05;;;11.00;51.00;;;;;;4943319;28;20059;-44
2023/01/15 13:10:40;;;;;;;5.38;0.80;;;11.00;51.00;;;;;;4944971;28;20062;-44
2023/01/15 13:13:16;;;;;;;10.95;1.23;;;11.00;50.90;;;;;;4949015;28;20407;-49
2023/01/15 13:15:56;;;;;;;4.93;1.10;;;11.00;50.80;;;;;;4947355;28;20066;-45
2023/01/15 13:18:32;;;;;;;10.10;1.08;;;11.00;50.80;;;;;;4950821;28;20427;-47
2023/01/15 13:21:05;;;;;;;8.43;1.40;;;11.10;51.00;;;;;;4947511;28;20066;-50
2023/01/15 13:23:49;;;;;;;4.55;1.00;;;11.10;51.20;;;;;;4947062;28;20546;-48
2023/01/15 13:26:40;;;;;;;5.38;1.25;;;11.10;50.60;;;;;;4950899;28;20047;-49
2023/01/15 13:29:19;;;;;;;6.95;1.00;;;11.10;50.70;;;;;;4945755;28;20059;-46
2023/01/15 13:31:56;;;;;;;7.88;1.17;;;11.10;50.50;;;;;;4945878;28;20315;-47
2023/01/15 13:34:30;;;;;;;6.95;1.17;;;11.10;50.40;;;;;;4949908;28;20141;-48
2023/01/15 13:37:03;;;;;;;5.60;0.95;;;11.10;50.20;;;;;;4977184;28;20526;-54
2023/01/15 13:39:40;;;;;;;2.33;1.03;;;11.10;50.30;;;;;;4944268;28;20066;-48
2023/01/15 13:42:31;;;;;;;4.90;0.82;;;11.10;50.40;;;;;;4947975;28;20479;-48
2023/01/15 13:45:07;;;;;;;4.90;1.52;;;11.10;50.30;;;;;;4953742;28;20069;-48
2023/01/15 13:47:37;;;;;;;5.63;0.98;;;11.10;49.80;;;;;;4945263;28;20055;-60
2023/01/15 13:50:12;;;;;;;4.53;0.93;;;11.10;49.50;;;;;;4949799;28;20061;-61
2023/01/15 13:52:40;;;;;;;5.20;1.27;;;11.10;50.10;;;;;;4948658;28;20498;-51
2023/01/15 13:55:13;;;;;;;5.15;0.98;;;11.10;50.10;;;;;;4943907;28;20384;-55
2023/01/15 13:57:41;;;;;;;14.55;1.13;;;11.10;49.90;;;;;;4945977;28;20086;-51
2023/01/15 14:00:30;;;;;;;3.80;0.80;;;11.10;49.90;;;;;;4949749;28;20086;-55
2023/01/15 14:02:58;;;;;;;4.50;0.75;;;11.10;49.80;;;;;;4944322;28;20074;-47
2023/01/15 14:05:30;;;;;;;8.68;1.17;;;11.10;49.90;;;;;;4943424;28;20530;-51